Airfield :
LOGIN :

Register | Disclaimer

   EN    FR    IT 

 










Legend :    VFR   Marginal VFR   IFR   Intensive IFR   Very Intensive IFR
Visi :
Ceiling :
>= 8 km
>= 3000ft
5 to 8 km
1000 to 3000 ft
1500m to 5 km
500 to 1000 ft
800 to 1500m
200 to 500 ft
< 800m
< 200 ft
Symbols :   Thunderstorms  Fog  Heavy snow  Heavy precipitations  Wind > 20 kt
SIGMETs :     Misc.  Thunderstorms  Icing  Turbulence  Mountain Waves  Volcanic Ashes







- Airport Elevation : 147 ft
- IATA code : DUS


EDDL - Düsseldorf Int.

CURRENT METAR :
  • 230850Z 16014KT 9999 BKN044 13/06 Q1000 NOSIG

EXPIRED METARs :
  • 230820Z 16015KT CAVOK 12/06 Q1000 NOSIG
  • 230750Z 16016KT 120V180 CAVOK 12/05 Q1000 NOSIG
  • 230720Z 16016KT 130V190 CAVOK 12/05 Q1000 NOSIG
  • 230650Z 16018KT CAVOK 12/05 Q1000 NOSIG
  • 230620Z 16017G27KT 130V190 CAVOK 12/05 Q1000 NOSIG

TAF TAF EDDL
Valid from the 23 at 06:00 until the 24 at 12:00 UTC


230500Z 2306/2412 17020G30KT 9999 SCT035
TEMPO 2307/2313 19025G35KT
BECMG 2313/2316 20013KT
PROB30
TEMPO 2314/2317 SHRA BKN020TCU
BECMG 2318/2321 21008KT
BECMG 2403/2406 17013KT
TEMPO 2406/2409 RA
BECMG 2408/2411 24008KT
No reported NOTAMs for that airfield.
1 SIGMET reported for the Langen FIR (EDGG) :
 
Severe turbulence
EDGG SIGMET 1 VALID 230645/231000 EDZF
EDGG LANGEN FIR SEV TURB FCST APRX 80NM WID LINE BTN N4912 E00644 - N5116 E01021 2000FT/5000FT STNR NC=



MET'MAP, your aeronautical weather chart ! - Copyright ORBIFLY December 2007 - Disclaimer

ORBIFLY MET'MAP TEAM :

Programming & Development : Alexandra Zaïnal
Concept & Development : Baudouin d'Aumeries
Co-Development & Prog : Marc-Olivier Méhu
Technical & hardware support : Manuel Goepfert

Contact : metmap@orbifly.com




SOURCES & CREDITS :

   NOAA